Time;durP1;ratioP1;P1;durP2;ratioP2;P2;SDS_P1;SDS_P2;PMS_P1;PMS_P2;Temp;Humidity;BMP_temperature;BMP_pressure;BME280_temperature;BME280_humidity;BME280_pressure;Samples;Min_cycle;Max_cycle;Signal;HPM_P1;HPM_P2
2022/09/05 00:02:03;;;;;;;;;3.00;3.00;;;;;;;;5118265;27;45281;-70
2022/09/05 00:04:46;;;;;;;;;4.00;3.00;;;;;;;;5118694;27;45248;-70
2022/09/05 00:07:17;;;;;;;;;2.67;2.67;;;;;;;;5117991;27;46577;-68
2022/09/05 00:09:58;;;;;;;;;4.00;3.00;;;;;;;;5118136;27;45418;-69
2022/09/05 00:12:24;;;;;;;;;4.00;4.00;;;;;;;;5106901;27;45277;-70
2022/09/05 00:15:13;;;;;;;;;4.33;3.00;;;;;;;;5098122;27;45307;-69
2022/09/05 00:17:57;;;;;;;;;4.00;3.00;;;;;;;;4994619;28;45492;-69
2022/09/05 00:20:27;;;;;;;;;4.33;4.33;;;;;;;;4994839;28;45353;-69
2022/09/05 00:22:53;;;;;;;;;4.00;4.00;;;;;;;;4994808;28;45360;-69
2022/09/05 00:25:33;;;;;;;;;3.33;3.33;;;;;;;;4995151;28;45441;-69
2022/09/05 00:28:04;;;;;;;;;2.33;2.33;;;;;;;;5006884;28;46201;-69
2022/09/05 00:30:38;;;;;;;;;5.00;3.00;;;;;;;;5014586;28;45439;-69
2022/09/05 00:33:13;;;;;;;;;3.00;3.00;;;;;;;;5014481;28;45412;-69
2022/09/05 00:36:05;;;;;;;;;5.33;4.33;;;;;;;;5014525;28;45357;-70
2022/09/05 00:38:31;;;;;;;;;3.00;3.00;;;;;;;;5014387;28;46693;-69
2022/09/05 00:41:06;;;;;;;;;3.33;3.00;;;;;;;;5014184;28;45398;-70
2022/09/05 00:43:35;;;;;;;;;3.00;2.00;;;;;;;;5014610;28;45458;-69
2022/09/05 00:46:06;;;;;;;;;2.00;2.00;;;;;;;;5013334;28;46278;-69
2022/09/05 00:48:34;;;;;;;;;5.00;3.00;;;;;;;;5013987;28;46535;-69
2022/09/05 00:51:19;;;;;;;;;3.67;3.00;;;;;;;;5014884;28;45481;-69
2022/09/05 00:53:54;;;;;;;;;3.00;3.00;;;;;;;;5027625;27;45569;-70
2022/09/05 00:56:38;;;;;;;;;5.00;3.33;;;;;;;;5100962;27;45240;-69
2022/09/05 00:59:12;;;;;;;;;4.00;4.00;;;;;;;;5100265;27;45678;-70
2022/09/05 01:01:43;;;;;;;;;4.00;2.67;;;;;;;;5099644;27;45490;-69
2022/09/05 01:04:35;;;;;;;;;3.00;3.00;;;;;;;;5117721;27;45391;-69
2022/09/05 01:07:06;;;;;;;;;5.67;3.00;;;;;;;;5121285;27;45660;-69
2022/09/05 01:09:43;;;;;;;;;3.00;3.00;;;;;;;;5120912;27;45553;-69
2022/09/05 01:12:17;;;;;;;;;5.00;4.00;;;;;;;;5120708;27;45248;-69
2022/09/05 01:14:48;;;;;;;;;1.67;1.67;;;;;;;;5121046;27;45349;-69
2022/09/05 01:17:17;;;;;;;;;5.67;2.67;;;;;;;;5121109;27;45493;-69
2022/09/05 01:20:01;;;;;;;;;3.00;3.00;;;;;;;;5116384;27;45245;-69
2022/09/05 01:22:36;;;;;;;;;4.00;4.00;;;;;;;;5099959;27;45624;-69
2022/09/05 01:25:13;;;;;;;;;3.67;3.67;;;;;;;;5100265;27;45377;-69
2022/09/05 01:27:39;;;;;;;;;4.00;4.00;;;;;;;;5100571;27;45332;-70
2022/09/05 01:30:07;;;;;;;;;3.33;3.33;;;;;;;;5081558;27;48052;-69
2022/09/05 01:32:39;;;;;;;;;3.00;3.00;;;;;;;;5099706;27;45414;-69
2022/09/05 01:35:24;;;;;;;;;3.67;2.00;;;;;;;;5100049;27;45428;-69
2022/09/05 01:37:54;;;;;;;;;3.67;3.67;;;;;;;;5106289;27;45449;-70
2022/09/05 01:40:26;;;;;;;;;3.33;1.67;;;;;;;;5119861;27;45457;-69
2022/09/05 01:43:24;;;;;;;;;2.33;2.33;;;;;;;;5120499;27;45395;-69
2022/09/05 01:45:49;;;;;;;;;4.67;4.00;;;;;;;;5056722;28;45333;-69
2022/09/05 01:48:14;;;;;;;;;3.00;3.00;;;;;;;;5056679;28;45416;-69
2022/09/05 01:50:48;;;;;;;;;3.00;3.00;;;;;;;;5056758;28;46579;-69
2022/09/05 01:53:13;;;;;;;;;3.00;3.00;;;;;;;;5056652;28;45391;-69
2022/09/05 01:55:57;;;;;;;;;4.00;4.00;;;;;;;;5056072;28;45594;-69
2022/09/05 01:58:34;;;;;;;;;3.00;3.00;;;;;;;;5057007;28;45439;-70
2022/09/05 02:01:05;;;;;;;;;4.00;3.00;;;;;;;;5056456;28;45627;-69
2022/09/05 02:04:00;;;;;;;;;2.33;2.33;;;;;;;;5055687;28;45389;-69
2022/09/05 02:06:28;;;;;;;;;2.00;2.00;;;;;;;;5016224;28;45418;-70
2022/09/05 02:08:59;;;;;;;;;2.67;2.00;;;;;;;;5016345;28;45474;-69
2022/09/05 02:11:36;;;;;;;;;2.67;2.67;;;;;;;;5015604;28;46364;-69
2022/09/05 02:14:07;;;;;;;;;4.33;3.67;;;;;;;;5016471;28;45369;-69
2022/09/05 02:16:37;;;;;;;;;2.67;2.67;;;;;;;;5016285;28;45340;-70
2022/09/05 02:19:08;;;;;;;;;3.00;3.00;;;;;;;;5016302;28;45429;-69
2022/09/05 02:21:36;;;;;;;;;3.33;3.33;;;;;;;;5038297;28;45666;-69
2022/09/05 02:24:01;;;;;;;;;2.00;2.00;;;;;;;;5056135;28;45539;-68
2022/09/05 02:26:31;;;;;;;;;4.67;3.33;;;;;;;;5055400;28;45368;-70
2022/09/05 02:29:00;;;;;;;;;2.33;2.33;;;;;;;;5070189;27;45535;-69
2022/09/05 02:31:26;;;;;;;;;3.00;3.00;;;;;;;;5076359;28;47010;-69
2022/09/05 02:34:02;;;;;;;;;4.00;4.00;;;;;;;;5076231;28;45378;-69
2022/09/05 02:36:50;;;;;;;;;4.00;4.00;;;;;;;;5076517;28;45443;-69
2022/09/05 02:39:15;;;;;;;;;2.33;2.00;;;;;;;;5076423;28;45362;-70
2022/09/05 02:41:44;;;;;;;;;4.00;4.00;;;;;;;;5077081;27;45533;-70
2022/09/05 02:44:14;;;;;;;;;3.00;3.00;;;;;;;;5118572;27;45271;-69
2022/09/05 02:46:40;;;;;;;;;4.00;3.33;;;;;;;;5119526;27;45367;-69
2022/09/05 02:49:09;;;;;;;;;3.67;2.00;;;;;;;;5119112;27;45551;-69
2022/09/05 02:51:37;;;;;;;;;4.00;4.00;;;;;;;;5119269;27;46715;-70
2022/09/05 02:54:08;;;;;;;;;2.00;2.00;;;;;;;;5119308;27;45416;-69
2022/09/05 02:56:40;;;;;;;;;2.00;2.00;;;;;;;;5119415;27;45375;-69
2022/09/05 02:59:24;;;;;;;;;3.33;3.00;;;;;;;;5118550;27;45359;-69
2022/09/05 03:01:56;;;;;;;;;4.67;4.67;;;;;;;;5119260;27;45359;-70
2022/09/05 03:04:34;;;;;;;;;3.00;3.00;;;;;;;;5119011;27;45454;-70
2022/09/05 03:07:21;;;;;;;;;3.00;3.00;;;;;;;;5119207;27;45328;-69
2022/09/05 03:10:04;;;;;;;;;4.67;3.33;;;;;;;;5119300;27;45547;-70
2022/09/05 03:12:48;;;;;;;;;3.00;3.00;;;;;;;;5118681;27;46258;-70
2022/09/05 03:15:13;;;;;;;;;3.00;3.00;;;;;;;;5117782;27;45244;-70
2022/09/05 03:17:52;;;;;;;;;5.33;5.00;;;;;;;;5106972;27;45487;-70
2022/09/05 03:20:50;;;;;;;;;5.33;4.67;;;;;;;;5098379;27;45418;-70
2022/09/05 03:23:27;;;;;;;;;5.00;4.00;;;;;;;;4995439;28;46587;-70
2022/09/05 03:26:24;;;;;;;;;4.00;4.00;;;;;;;;4995505;28;45488;-70
2022/09/05 03:29:08;;;;;;;;;6.00;4.67;;;;;;;;4956638;28;45406;-70
2022/09/05 03:31:36;;;;;;;;;3.67;3.67;;;;;;;;4956411;28;45594;-70
2022/09/05 03:34:22;;;;;;;;;4.00;4.00;;;;;;;;4956684;28;45585;-72
2022/09/05 03:37:06;;;;;;;;;4.00;4.00;;;;;;;;4975595;28;45364;-72
2022/09/05 03:39:55;;;;;;;;;4.67;4.67;;;;;;;;4975736;28;45513;-72
2022/09/05 03:42:26;;;;;;;;;4.00;4.00;;;;;;;;4918035;28;45395;-71
2022/09/05 03:44:51;;;;;;;;;4.00;4.00;;;;;;;;4917417;28;45585;-70
2022/09/05 03:47:36;;;;;;;;;3.00;3.00;;;;;;;;4917531;28;45433;-72
2022/09/05 03:50:12;;;;;;;;;3.00;3.00;;;;;;;;4917501;28;45372;-72
2022/09/05 03:52:56;;;;;;;;;2.67;1.67;;;;;;;;4916538;28;45466;-72
2022/09/05 03:55:21;;;;;;;;;4.00;4.00;;;;;;;;4917456;28;46276;-70
2022/09/05 03:58:09;;;;;;;;;3.00;3.00;;;;;;;;4919344;28;45364;-70
2022/09/05 04:00:35;;;;;;;;;5.67;4.00;;;;;;;;4955319;28;45390;-70
2022/09/05 04:03:09;;;;;;;;;3.00;3.00;;;;;;;;4956223;28;45440;-70
2022/09/05 04:05:37;;;;;;;;;3.33;3.33;;;;;;;;5032426;28;46241;-70
2022/09/05 04:08:08;;;;;;;;;4.00;4.00;;;;;;;;5034585;28;45434;-70
2022/09/05 04:10:52;;;;;;;;;3.00;3.00;;;;;;;;5041974;28;45489;-70
2022/09/05 04:13:26;;;;;;;;;2.00;2.00;;;;;;;;5054851;28;45440;-70
2022/09/05 04:16:08;;;;;;;;;5.33;3.67;;;;;;;;5054429;28;45689;-70
2022/09/05 04:18:37;;;;;;;;;3.00;3.00;;;;;;;;5065441;27;45422;-70
2022/09/05 04:21:07;;;;;;;;;4.67;3.33;;;;;;;;5117957;27;45339;-70
2022/09/05 04:23:32;;;;;;;;;2.33;2.33;;;;;;;;5118070;27;45276;-70
2022/09/05 04:26:09;;;;;;;;;3.00;3.00;;;;;;;;5118551;27;45608;-71
2022/09/05 04:28:37;;;;;;;;;4.00;3.00;;;;;;;;5120347;27;45461;-70
2022/09/05 04:31:11;;;;;;;;;5.33;4.00;;;;;;;;5103445;27;45493;-70
2022/09/05 04:33:55;;;;;;;;;4.00;4.00;;;;;;;;5121720;27;45349;-70
2022/09/05 04:36:23;;;;;;;;;3.67;3.67;;;;;;;;5121329;27;45412;-70
2022/09/05 04:39:24;;;;;;;;;5.00;3.00;;;;;;;;5121266;27;45458;-70
2022/09/05 04:41:53;;;;;;;;;4.00;3.00;;;;;;;;5058004;28;45427;-70
2022/09/05 04:44:25;;;;;;;;;5.33;4.00;;;;;;;;5057014;28;45405;-70
2022/09/05 04:46:51;;;;;;;;;4.00;4.00;;;;;;;;5057680;28;45950;-70
2022/09/05 04:49:17;;;;;;;;;2.67;2.67;;;;;;;;5057548;28;45351;-70
2022/09/05 04:51:42;;;;;;;;;5.00;3.00;;;;;;;;5057802;28;45421;-70
2022/09/05 04:54:10;;;;;;;;;3.33;3.00;;;;;;;;5058087;28;45349;-70
2022/09/05 04:56:40;;;;;;;;;3.00;1.00;;;;;;;;5057593;28;46761;-70
2022/09/05 04:59:17;;;;;;;;;2.00;2.00;;;;;;;;5057474;28;45424;-72
2022/09/05 05:01:46;;;;;;;;;3.33;3.33;;;;;;;;5056454;28;45392;-72
2022/09/05 05:04:15;;;;;;;;;3.67;2.67;;;;;;;;5057648;28;45322;-72
2022/09/05 05:06:56;;;;;;;;;5.33;5.00;;;;;;;;5057331;28;46335;-72
2022/09/05 05:09:26;;;;;;;;;5.00;3.33;;;;;;;;5057179;28;45276;-72
2022/09/05 05:12:00;;;;;;;;;6.33;5.00;;;;;;;;5056800;28;45490;-72
2022/09/05 05:14:30;;;;;;;;;8.00;6.67;;;;;;;;5057737;28;45471;-71
2022/09/05 05:17:07;;;;;;;;;5.00;5.00;;;;;;;;5118248;27;46273;-70
2022/09/05 05:19:40;;;;;;;;;5.00;5.00;;;;;;;;5120758;27;45893;-72
2022/09/05 05:22:12;;;;;;;;;4.00;4.00;;;;;;;;5120899;27;45214;-70
2022/09/05 05:24:42;;;;;;;;;6.33;6.33;;;;;;;;5121011;27;45337;-70
2022/09/05 05:27:16;;;;;;;;;3.33;3.33;;;;;;;;5120559;27;47298;-70
2022/09/05 05:29:57;;;;;;;;;4.00;4.00;;;;;;;;5119143;27;45274;-70
2022/09/05 05:32:24;;;;;;;;;14.67;14.00;;;;;;;;5120768;27;45307;-73
2022/09/05 05:34:54;;;;;;;;;6.00;4.00;;;;;;;;5120739;27;45545;-70
2022/09/05 05:37:28;;;;;;;;;14.67;13.67;;;;;;;;5119518;27;46409;-72
2022/09/05 05:40:09;;;;;;;;;13.33;12.67;;;;;;;;5120055;27;45453;-72
2022/09/05 05:42:36;;;;;;;;;6.33;5.00;;;;;;;;5120625;27;45349;-70
2022/09/05 05:45:02;;;;;;;;;9.33;5.00;;;;;;;;5114318;27;45444;-71
2022/09/05 05:47:33;;;;;;;;;8.00;6.67;;;;;;;;5099480;27;45500;-71
2022/09/05 05:49:58;;;;;;;;;5.33;5.33;;;;;;;;5099534;27;45382;-72
2022/09/05 05:52:23;;;;;;;;;4.33;4.00;;;;;;;;5099453;27;45232;-72
2022/09/05 05:54:52;;;;;;;;;7.00;6.00;;;;;;;;5100262;27;45158;-72
2022/09/05 05:57:33;;;;;;;;;5.33;5.33;;;;;;;;5099711;27;45447;-74
2022/09/05 05:59:59;;;;;;;;;4.00;4.00;;;;;;;;5099167;27;45380;-74
2022/09/05 06:02:53;;;;;;;;;5.00;4.33;;;;;;;;5098783;27;45445;-72
2022/09/05 06:05:24;;;;;;;;;9.00;6.00;;;;;;;;5081321;27;45280;-74
2022/09/05 06:08:06;;;;;;;;;5.00;4.33;;;;;;;;5099213;27;47055;-73
2022/09/05 06:10:50;;;;;;;;;19.00;14.00;;;;;;;;5099232;27;45186;-73
2022/09/05 06:13:30;;;;;;;;;7.33;6.33;;;;;;;;5099179;27;45564;-74
2022/09/05 06:15:56;;;;;;;;;7.67;7.00;;;;;;;;5099489;27;45443;-74
2022/09/05 06:18:44;;;;;;;;;7.00;5.33;;;;;;;;5099244;27;45984;-74
2022/09/05 06:21:09;;;;;;;;;7.67;6.67;;;;;;;;5098872;27;45227;-72
2022/09/05 06:23:47;;;;;;;;;21.00;14.33;;;;;;;;5099100;27;45248;-70
2022/09/05 06:26:22;;;;;;;;;5.67;5.00;;;;;;;;5099654;27;45415;-70
2022/09/05 06:29:16;;;;;;;;;4.33;4.33;;;;;;;;5107134;27;45780;-71
2022/09/05 06:31:47;;;;;;;;;7.67;6.67;;;;;;;;5055839;28;45428;-70
2022/09/05 06:34:12;;;;;;;;;6.33;6.33;;;;;;;;5056219;28;45463;-72
2022/09/05 06:36:47;;;;;;;;;7.00;7.00;;;;;;;;5056392;28;45650;-72
2022/09/05 06:39:18;;;;;;;;;10.00;7.00;;;;;;;;5055857;28;45478;-73
2022/09/05 06:41:46;;;;;;;;;7.00;7.00;;;;;;;;5055842;28;45416;-72
2022/09/05 06:44:12;;;;;;;;;5.00;5.00;;;;;;;;5055279;28;45380;-73
2022/09/05 06:46:41;;;;;;;;;4.67;4.67;;;;;;;;5056278;28;45524;-70
2022/09/05 06:49:16;;;;;;;;;9.33;8.00;;;;;;;;5055497;28;45718;-71
2022/09/05 06:51:47;;;;;;;;;6.00;6.00;;;;;;;;5055570;28;45344;-70
2022/09/05 06:54:12;;;;;;;;;6.33;5.00;;;;;;;;5055791;28;45441;-70
2022/09/05 06:56:40;;;;;;;;;68.50;55.50;;;;;;;;5055884;28;45376;-70
2022/09/05 06:59:23;;;;;;;;;10.67;8.33;;;;;;;;5055734;28;46457;-70
2022/09/05 07:01:55;;;;;;;;;14.00;12.33;;;;;;;;5043938;28;45452;-71
2022/09/05 07:04:32;;;;;;;;;4.67;4.67;;;;;;;;5035702;28;45327;-71
2022/09/05 07:07:03;;;;;;;;;5.00;5.00;;;;;;;;5037251;27;45402;-71
2022/09/05 07:09:44;;;;;;;;;8.00;5.00;;;;;;;;5098170;27;45438;-70
2022/09/05 07:12:15;;;;;;;;;4.00;4.00;;;;;;;;5098533;27;45339;-71
2022/09/05 07:14:54;;;;;;;;;5.00;5.00;;;;;;;;5098559;27;45408;-70
2022/09/05 07:17:23;;;;;;;;;5.33;5.00;;;;;;;;5098603;27;45390;-70
2022/09/05 07:19:52;;;;;;;;;6.00;4.33;;;;;;;;5110227;27;47184;-70
2022/09/05 07:22:40;;;;;;;;;6.33;4.33;;;;;;;;5119005;27;45436;-70
2022/09/05 07:25:10;;;;;;;;;3.67;3.67;;;;;;;;5118958;27;45440;-70
2022/09/05 07:27:38;;;;;;;;;4.00;4.00;;;;;;;;5119081;27;45400;-70
2022/09/05 07:30:04;;;;;;;;;6.33;6.33;;;;;;;;5118829;27;45276;-70
2022/09/05 07:32:32;;;;;;;;;4.67;3.00;;;;;;;;5118816;27;45543;-71
2022/09/05 07:35:00;;;;;;;;;5.00;5.00;;;;;;;;5107711;27;45418;-70
2022/09/05 07:37:31;;;;;;;;;5.33;5.33;;;;;;;;5098354;27;45270;-70
2022/09/05 07:40:00;;;;;;;;;4.33;3.67;;;;;;;;5097712;27;47116;-70
2022/09/05 07:42:30;;;;;;;;;4.67;4.00;;;;;;;;5098071;27;45471;-71
2022/09/05 07:44:59;;;;;;;;;4.33;4.33;;;;;;;;5098210;27;45319;-71
2022/09/05 07:47:24;;;;;;;;;4.67;4.67;;;;;;;;5098132;27;45379;-72
2022/09/05 07:49:50;;;;;;;;;3.00;3.00;;;;;;;;5113464;27;46299;-72
2022/09/05 07:52:18;;;;;;;;;7.00;4.00;;;;;;;;5117228;27;45340;-72
2022/09/05 07:54:45;;;;;;;;;6.00;4.67;;;;;;;;5118645;27;45456;-72
2022/09/05 07:57:15;;;;;;;;;4.00;3.00;;;;;;;;5118641;27;45310;-72
2022/09/05 07:59:50;;;;;;;;;6.33;5.67;;;;;;;;5118227;27;45427;-72
2022/09/05 08:02:15;;;;;;;;;5.00;5.00;;;;;;;;5120594;27;45378;-73
2022/09/05 08:04:41;;;;;;;;;5.33;5.33;;;;;;;;5122172;27;45404;-70
2022/09/05 08:07:06;;;;;;;;;4.67;4.00;;;;;;;;5122312;27;45331;-71
2022/09/05 08:09:53;;;;;;;;;3.00;3.00;;;;;;;;5120561;27;47584;-71
2022/09/05 08:12:29;;;;;;;;;7.00;4.67;;;;;;;;5121465;27;45264;-72
2022/09/05 08:14:57;;;;;;;;;10.00;10.00;;;;;;;;5122119;27;45464;-72
2022/09/05 08:17:24;;;;;;;;;3.33;3.33;;;;;;;;5122258;27;45311;-72
2022/09/05 08:20:08;;;;;;;;;4.00;4.00;;;;;;;;5121596;27;46149;-71
2022/09/05 08:22:44;;;;;;;;;8.00;6.67;;;;;;;;5121456;27;45471;-72
2022/09/05 08:25:15;;;;;;;;;13.67;13.67;;;;;;;;5113136;27;45588;-72
2022/09/05 08:27:54;;;;;;;;;10.67;8.67;;;;;;;;5101185;27;45405;-72
2022/09/05 08:30:19;;;;;;;;;9.67;7.00;;;;;;;;5100700;27;46238;-72
2022/09/05 08:32:45;;;;;;;;;6.33;4.67;;;;;;;;5100769;27;45310;-72
2022/09/05 08:35:33;;;;;;;;;5.67;5.67;;;;;;;;5101387;27;45369;-73
2022/09/05 08:37:59;;;;;;;;;3.00;3.00;;;;;;;;5017953;28;45755;-72
2022/09/05 08:40:27;;;;;;;;;4.00;4.00;;;;;;;;5016402;28;46355;-71
2022/09/05 08:42:54;;;;;;;;;5.00;5.00;;;;;;;;5017898;28;45452;-72
2022/09/05 08:45:19;;;;;;;;;3.33;3.00;;;;;;;;5017859;28;45346;-72
2022/09/05 08:47:54;;;;;;;;;5.00;5.00;;;;;;;;5018000;28;45478;-71
2022/09/05 08:50:41;;;;;;;;;4.00;4.00;;;;;;;;5017659;28;47137;-71
2022/09/05 08:53:09;;;;;;;;;9.33;5.33;;;;;;;;5017540;28;45528;-71
2022/09/05 08:55:37;;;;;;;;;4.00;4.00;;;;;;;;5016921;28;45341;-71
2022/09/05 08:58:22;;;;;;;;;3.67;3.67;;;;;;;;5017911;28;45367;-70
2022/09/05 09:00:58;;;;;;;;;4.00;4.00;;;;;;;;4958214;28;46245;-71
2022/09/05 09:03:40;;;;;;;;;5.33;5.00;;;;;;;;4958540;28;45406;-70
2022/09/05 09:06:24;;;;;;;;;2.67;2.67;;;;;;;;4958861;28;45365;-70
2022/09/05 09:08:49;;;;;;;;;5.00;5.00;;;;;;;;4944037;28;45590;-70
2022/09/05 09:11:23;;;;;;;;;6.00;4.33;;;;;;;;4938744;28;45411;-71
2022/09/05 09:13:53;;;;;;;;;4.33;4.33;;;;;;;;4949628;28;45521;-70
2022/09/05 09:16:37;;;;;;;;;5.00;5.00;;;;;;;;5037415;28;45441;-70
2022/09/05 09:19:12;;;;;;;;;4.33;4.33;;;;;;;;5037601;28;45456;-71
2022/09/05 09:21:45;;;;;;;;;6.00;6.00;;;;;;;;5018040;28;45543;-70
2022/09/05 09:24:26;;;;;;;;;8.00;5.00;;;;;;;;5016864;28;45400;-71
2022/09/05 09:26:58;;;;;;;;;7.00;5.00;;;;;;;;5017168;28;45441;-71
2022/09/05 09:29:24;;;;;;;;;8.67;6.00;;;;;;;;5017366;28;45715;-71
2022/09/05 09:32:00;;;;;;;;;5.00;4.00;;;;;;;;4999251;28;45332;-71
2022/09/05 09:34:25;;;;;;;;;7.67;7.00;;;;;;;;4997188;28;45409;-71
2022/09/05 09:36:51;;;;;;;;;6.00;6.00;;;;;;;;5002382;27;45474;-71
2022/09/05 09:39:31;;;;;;;;;6.00;5.33;;;;;;;;5100053;27;45354;-71
2022/09/05 09:42:06;;;;;;;;;9.00;7.33;;;;;;;;5099583;27;46541;-71
2022/09/05 09:44:50;;;;;;;;;6.00;4.67;;;;;;;;5099983;27;45784;-71
2022/09/05 09:47:20;;;;;;;;;8.00;5.00;;;;;;;;5116583;27;45231;-72
2022/09/05 09:49:51;;;;;;;;;5.33;5.33;;;;;;;;5120421;27;45374;-71
2022/09/05 09:52:20;;;;;;;;;5.00;5.00;;;;;;;;5120278;27;46192;-71
2022/09/05 09:54:48;;;;;;;;;7.00;7.00;;;;;;;;5120247;27;45445;-71
2022/09/05 09:57:49;;;;;;;;;4.00;4.00;;;;;;;;5120222;27;45687;-72
2022/09/05 10:00:20;;;;;;;;;6.67;4.67;;;;;;;;5056800;28;45383;-71
2022/09/05 10:03:03;;;;;;;;;6.67;5.00;;;;;;;;5055329;28;46622;-71
2022/09/05 10:05:36;;;;;;;;;5.00;5.00;;;;;;;;5056569;28;45560;-71
2022/09/05 10:08:04;;;;;;;;;5.00;5.00;;;;;;;;5056357;28;45832;-71
2022/09/05 10:10:32;;;;;;;;;6.00;6.00;;;;;;;;5056490;28;45621;-71
2022/09/05 10:13:22;;;;;;;;;4.00;3.33;;;;;;;;5056282;28;46302;-72
2022/09/05 10:16:05;;;;;;;;;7.00;6.00;;;;;;;;5056269;28;45395;-71
2022/09/05 10:18:33;;;;;;;;;7.67;4.33;;;;;;;;5055505;28;45522;-71
2022/09/05 10:21:01;;;;;;;;;8.67;5.67;;;;;;;;5056436;28;45370;-72
2022/09/05 10:23:29;;;;;;;;;5.33;5.33;;;;;;;;5055763;28;46297;-72
2022/09/05 10:26:13;;;;;;;;;4.00;3.67;;;;;;;;5055664;28;45413;-72
2022/09/05 10:28:50;;;;;;;;;4.33;4.00;;;;;;;;5056310;28;45318;-72
2022/09/05 10:31:17;;;;;;;;;6.67;2.67;;;;;;;;5056470;28;45381;-71
2022/09/05 10:34:01;;;;;;;;;5.00;3.33;;;;;;;;5069158;27;46341;-71
2022/09/05 10:36:28;;;;;;;;;4.00;4.00;;;;;;;;5119444;27;45451;-72
2022/09/05 10:39:02;;;;;;;;;5.67;4.67;;;;;;;;5119455;27;45399;-72
2022/09/05 10:41:48;;;;;;;;;6.00;4.00;;;;;;;;5119703;27;45284;-71
2022/09/05 10:44:16;;;;;;;;;4.00;4.00;;;;;;;;5119347;27;46438;-71
2022/09/05 10:46:44;;;;;;;;;6.67;6.67;;;;;;;;5119312;27;45354;-71
2022/09/05 10:49:12;;;;;;;;;5.00;4.33;;;;;;;;5119348;27;45423;-71
2022/09/05 10:51:43;;;;;;;;;6.33;5.00;;;;;;;;5119069;27;45331;-72
2022/09/05 10:54:11;;;;;;;;;8.67;5.00;;;;;;;;5119018;27;47081;-72
2022/09/05 10:56:39;;;;;;;;;6.00;4.67;;;;;;;;5119335;27;45327;-71
2022/09/05 10:59:09;;;;;;;;;5.00;4.00;;;;;;;;5119344;27;45207;-71
2022/09/05 11:01:34;;;;;;;;;5.67;5.67;;;;;;;;5119386;27;45348;-72
2022/09/05 11:04:18;;;;;;;;;3.67;3.67;;;;;;;;5119071;27;45427;-71
2022/09/05 11:06:43;;;;;;;;;3.67;3.67;;;;;;;;5119355;27;45374;-72
2022/09/05 11:09:21;;;;;;;;;3.67;3.67;;;;;;;;5105707;27;45241;-72
2022/09/05 11:12:02;;;;;;;;;3.33;3.33;;;;;;;;5098787;27;45437;-72
2022/09/05 11:14:52;;;;;;;;;5.00;5.00;;;;;;;;5098210;27;45459;-72
2022/09/05 11:17:29;;;;;;;;;2.67;2.67;;;;;;;;4995438;28;45498;-72
2022/09/05 11:20:03;;;;;;;;;7.67;6.33;;;;;;;;4995795;28;45461;-72
2022/09/05 11:22:35;;;;;;;;;4.67;4.67;;;;;;;;4995901;28;45363;-72
2022/09/05 11:25:02;;;;;;;;;3.67;3.67;;;;;;;;5007622;28;46301;-71
2022/09/05 11:27:27;;;;;;;;;5.00;4.00;;;;;;;;5014984;28;45546;-72
2022/09/05 11:29:56;;;;;;;;;4.00;4.00;;;;;;;;5015402;28;45631;-71
2022/09/05 11:32:24;;;;;;;;;3.00;3.00;;;;;;;;5015523;28;45553;-72
2022/09/05 11:35:08;;;;;;;;;3.00;3.00;;;;;;;;5014842;28;46428;-71
2022/09/05 11:37:33;;;;;;;;;5.00;5.00;;;;;;;;5014464;28;45475;-71
2022/09/05 11:40:10;;;;;;;;;4.00;4.00;;;;;;;;5014445;28;45464;-71
2022/09/05 11:42:44;;;;;;;;;5.00;3.00;;;;;;;;4995702;28;45403;-71
2022/09/05 11:45:33;;;;;;;;;8.00;4.67;;;;;;;;4995038;28;46799;-72
2022/09/05 11:48:01;;;;;;;;;5.00;5.00;;;;;;;;4955728;28;45469;-72
2022/09/05 11:50:29;;;;;;;;;3.67;3.67;;;;;;;;4956187;28;45323;-71
2022/09/05 11:53:30;;;;;;;;;5.33;5.33;;;;;;;;4956309;28;45429;-71
2022/09/05 11:56:14;;;;;;;;;5.00;5.00;;;;;;;;4994845;28;47212;-72
2022/09/05 11:58:47;;;;;;;;;4.00;4.00;;;;;;;;4994988;28;45378;-72
2022/09/05 12:01:32;;;;;;;;;5.00;4.00;;;;;;;;4994983;28;46010;-72
2022/09/05 12:04:13;;;;;;;;;5.00;5.00;;;;;;;;4995261;28;45446;-71
2022/09/05 12:06:44;;;;;;;;;5.00;3.67;;;;;;;;4994801;28;47078;-72
2022/09/05 12:09:09;;;;;;;;;8.67;6.33;;;;;;;;4994748;28;45354;-72
2022/09/05 12:12:07;;;;;;;;;3.00;1.33;;;;;;;;4994907;28;45302;-72
2022/09/05 12:14:45;;;;;;;;;3.33;3.33;;;;;;;;4936596;28;45406;-72
2022/09/05 12:17:22;;;;;;;;;4.33;4.33;;;;;;;;4936190;28;45398;-72
2022/09/05 12:19:53;;;;;;;;;2.67;2.67;;;;;;;;4936307;28;45384;-71
2022/09/05 12:22:26;;;;;;;;;3.33;3.33;;;;;;;;4936482;28;45333;-71
2022/09/05 12:25:11;;;;;;;;;4.00;4.00;;;;;;;;4953442;28;45442;-71
2022/09/05 12:27:37;;;;;;;;;4.00;4.00;;;;;;;;4936138;28;46267;-72
2022/09/05 12:30:08;;;;;;;;;5.33;4.33;;;;;;;;4967388;28;45489;-72
2022/09/05 12:32:45;;;;;;;;;5.00;5.00;;;;;;;;4995004;28;45359;-71
2022/09/05 12:35:11;;;;;;;;;4.67;4.67;;;;;;;;4994861;28;45835;-71
2022/09/05 12:37:42;;;;;;;;;5.00;5.00;;;;;;;;4994284;28;47140;-72
2022/09/05 12:40:10;;;;;;;;;5.00;4.67;;;;;;;;4994258;28;45444;-71
2022/09/05 12:42:39;;;;;;;;;8.00;4.33;;;;;;;;4994756;28;45322;-72
2022/09/05 12:45:08;;;;;;;;;8.00;5.00;;;;;;;;4993666;28;45367;-72
2022/09/05 12:47:49;;;;;;;;;3.00;3.00;;;;;;;;4995600;28;46150;-72
2022/09/05 12:50:17;;;;;;;;;3.00;2.00;;;;;;;;5029754;28;45394;-71
2022/09/05 12:52:45;;;;;;;;;4.33;4.00;;;;;;;;5057864;28;45515;-72
2022/09/05 12:55:10;;;;;;;;;2.33;2.33;;;;;;;;5057757;28;45430;-71
2022/09/05 12:57:40;;;;;;;;;3.00;3.00;;;;;;;;5057537;28;46568;-72
2022/09/05 13:00:09;;;;;;;;;4.00;3.00;;;;;;;;5057523;28;45531;-72
2022/09/05 13:02:36;;;;;;;;;5.33;5.33;;;;;;;;5044648;28;45493;-71
2022/09/05 13:05:09;;;;;;;;;3.67;3.67;;;;;;;;5077230;27;45263;-72
2022/09/05 13:07:47;;;;;;;;;3.67;3.67;;;;;;;;5100034;27;45450;-71
2022/09/05 13:10:18;;;;;;;;;4.67;4.00;;;;;;;;5100147;27;45322;-72
2022/09/05 13:12:46;;;;;;;;;3.67;3.67;;;;;;;;5100566;27;45348;-72
2022/09/05 13:15:15;;;;;;;;;2.67;2.67;;;;;;;;5100569;27;45211;-71
2022/09/05 13:18:00;;;;;;;;;5.33;4.00;;;;;;;;5100076;27;47378;-72
2022/09/05 13:20:35;;;;;;;;;6.33;4.67;;;;;;;;5115789;27;45256;-71
2022/09/05 13:23:20;;;;;;;;;3.33;3.33;;;;;;;;5121229;27;45404;-71
2022/09/05 13:25:55;;;;;;;;;9.33;8.67;;;;;;;;5120206;27;45756;-71
2022/09/05 13:28:24;;;;;;;;;4.00;4.00;;;;;;;;5120637;27;46758;-71
2022/09/05 13:30:55;;;;;;;;;7.33;6.67;;;;;;;;5120424;27;45243;-72
2022/09/05 13:33:24;;;;;;;;;7.00;7.00;;;;;;;;5120848;27;45310;-71
2022/09/05 13:36:06;;;;;;;;;2.67;2.67;;;;;;;;5119680;27;45335;-71
2022/09/05 13:38:36;;;;;;;;;4.00;4.00;;;;;;;;5120337;27;46578;-71
2022/09/05 13:41:02;;;;;;;;;3.67;3.67;;;;;;;;5120283;27;45241;-71
2022/09/05 13:43:30;;;;;;;;;7.33;6.00;;;;;;;;5120679;27;45365;-71
2022/09/05 13:46:05;;;;;;;;;5.00;5.00;;;;;;;;5120725;27;45409;-71
2022/09/05 13:48:49;;;;;;;;;5.67;4.67;;;;;;;;5120221;27;47328;-70
2022/09/05 13:51:33;;;;;;;;;4.33;3.67;;;;;;;;5116195;27;45375;-71
2022/09/05 13:54:02;;;;;;;;;6.00;6.00;;;;;;;;5099853;27;45161;-71
2022/09/05 13:56:30;;;;;;;;;5.33;5.33;;;;;;;;5099942;27;45518;-72
2022/09/05 13:59:03;;;;;;;;;5.00;4.33;;;;;;;;5098516;27;46105;-71
2022/09/05 14:01:28;;;;;;;;;5.67;3.00;;;;;;;;5099726;27;45391;-71
2022/09/05 14:04:06;;;;;;;;;4.00;4.00;;;;;;;;5099688;27;45312;-71
2022/09/05 14:06:39;;;;;;;;;4.67;4.67;;;;;;;;5098708;27;45249;-70
2022/09/05 14:09:17;;;;;;;;;6.33;5.33;;;;;;;;5099041;27;46597;-71
2022/09/05 14:12:01;;;;;;;;;6.00;6.00;;;;;;;;5099361;27;45359;-72
2022/09/05 14:14:34;;;;;;;;;3.67;3.67;;;;;;;;5099567;27;45415;-71
2022/09/05 14:17:05;;;;;;;;;3.00;3.00;;;;;;;;5099759;27;45440;-71
2022/09/05 14:22:33;;;;;;;;;4.33;4.33;;;;;;;;5099269;27;45401;-71
2022/09/05 14:24:59;;;;;;;;;5.00;4.00;;;;;;;;5108742;27;45543;-71
2022/09/05 14:27:25;;;;;;;;;4.67;4.67;;;;;;;;5119938;27;45336;-71
2022/09/05 14:29:54;;;;;;;;;6.00;5.00;;;;;;;;5119595;27;45407;-71
2022/09/05 14:32:22;;;;;;;;;4.67;4.67;;;;;;;;5119769;27;45231;-71
2022/09/05 14:34:51;;;;;;;;;3.67;3.67;;;;;;;;5119848;27;45223;-71
2022/09/05 14:37:19;;;;;;;;;8.00;8.00;;;;;;;;5120007;27;45240;-71
2022/09/05 14:39:57;;;;;;;;;6.67;5.33;;;;;;;;5115017;27;45928;-70
2022/09/05 14:42:40;;;;;;;;;4.33;4.33;;;;;;;;5098805;27;45431;-71
2022/09/05 14:45:06;;;;;;;;;4.33;4.33;;;;;;;;5099013;27;45395;-71
2022/09/05 14:47:44;;;;;;;;;4.00;4.00;;;;;;;;5099143;27;45296;-71
2022/09/05 14:50:33;;;;;;;;;3.00;3.00;;;;;;;;5098714;27;46327;-72
2022/09/05 14:53:14;;;;;;;;;6.00;4.33;;;;;;;;5098681;27;45485;-72
2022/09/05 14:55:54;;;;;;;;;3.67;3.67;;;;;;;;5098854;27;45364;-70
2022/09/05 14:58:22;;;;;;;;;3.67;3.67;;;;;;;;5112685;27;45235;-71
2022/09/05 15:00:55;;;;;;;;;4.33;4.33;;;;;;;;5119034;27;45655;-71
2022/09/05 15:03:22;;;;;;;;;5.00;5.00;;;;;;;;5119145;27;45243;-72
2022/09/05 15:05:50;;;;;;;;;5.00;3.00;;;;;;;;5119410;27;45309;-72
2022/09/05 15:08:20;;;;;;;;;6.00;6.00;;;;;;;;5119284;27;45629;-71
2022/09/05 15:10:47;;;;;;;;;4.33;4.33;;;;;;;;5118438;27;46375;-71
2022/09/05 15:13:17;;;;;;;;;4.00;4.00;;;;;;;;5112692;27;45440;-72
2022/09/05 15:15:49;;;;;;;;;5.00;5.00;;;;;;;;5098478;27;45412;-71
2022/09/05 15:18:17;;;;;;;;;3.67;3.67;;;;;;;;5098645;27;45449;-72
2022/09/05 15:20:47;;;;;;;;;4.67;3.00;;;;;;;;5098235;27;46267;-71
2022/09/05 15:23:18;;;;;;;;;4.00;4.00;;;;;;;;5098496;27;45445;-72
2022/09/05 15:25:58;;;;;;;;;7.00;4.00;;;;;;;;5098179;27;45315;-72